Terminal Aerodrome Forecast
Issued by NWS Cleveland, OH

Home | Current Version | Previous Version | Graphics & Text | Print | Product List | Glossary Off
Versions: 1 2 3 4 5 6 7 8 9 10 11 12 13 14

602
FTUS41 KCLE 211140
TAFCAK
TAF
KCAK 211140Z 2112/2212 27010KT P6SM BKN025
     FM211400 28012G20KT P6SM OVC025
     FM211900 28012G22KT P6SM BKN030
     FM220100 33007KT P6SM OVC025=

USA.gov is the U.S. government's official web portal to all federal, state and local government web resources and services.